Time;durP1;ratioP1;P1;durP2;ratioP2;P2;SDS_P1;SDS_P2;PMS_P1;PMS_P2;Temp;Humidity;BMP_temperature;BMP_pressure;BME280_temperature;BME280_humidity;BME280_pressure;Samples;Min_cycle;Max_cycle;Signal;HPM_P1;HPM_P2
2023/01/19 00:00:16;;;;;;;5.75;2.30;;;2.60;99.90;;;;;;5070946;28;20103;-80
2023/01/19 00:02:44;;;;;;;5.90;2.17;;;2.60;99.90;;;;;;5070840;28;20021;-81
2023/01/19 00:05:10;;;;;;;6.45;1.67;;;2.70;99.90;;;;;;5070945;28;20016;-81
2023/01/19 00:07:36;;;;;;;6.95;2.30;;;2.60;99.90;;;;;;5070986;28;20029;-80
2023/01/19 00:10:01;;;;;;;6.03;2.25;;;2.60;99.90;;;;;;5074709;28;20101;-80
2023/01/19 00:12:27;;;;;;;6.22;2.70;;;2.60;99.90;;;;;;5074759;28;20043;-80
2023/01/19 00:14:53;;;;;;;12.73;3.42;;;2.70;99.90;;;;;;5074848;28;20047;-81
2023/01/19 00:17:19;;;;;;;13.05;4.10;;;2.50;99.90;;;;;;5074706;28;20071;-80
2023/01/19 00:19:44;;;;;;;8.80;3.90;;;2.50;99.90;;;;;;5074400;28;20024;-80
2023/01/19 00:22:10;;;;;;;11.23;3.13;;;2.50;99.90;;;;;;5074433;28;20025;-80
2023/01/19 00:24:35;;;;;;;5.57;2.70;;;2.60;99.90;;;;;;5073904;28;20473;-81
2023/01/19 00:27:02;;;;;;;5.22;2.58;;;2.80;99.90;;;;;;5075870;28;20122;-81
2023/01/19 00:29:32;;;;;;;6.00;2.45;;;2.90;99.90;;;;;;5076962;28;20056;-80
2023/01/19 00:31:59;;;;;;;5.43;2.38;;;3.00;99.90;;;;;;5080287;28;20040;-79
2023/01/19 00:34:25;;;;;;;2.83;2.10;;;3.10;99.90;;;;;;5077091;28;20021;-79
2023/01/19 00:36:50;;;;;;;5.75;2.28;;;3.20;99.90;;;;;;5074520;28;20108;-78
2023/01/19 00:39:16;;;;;;;8.75;2.20;;;3.30;99.90;;;;;;5074404;28;20446;-78
2023/01/19 00:44:26;;;;;;;9.13;2.45;;;3.30;99.90;;;;;;5073994;28;20090;-79
2023/01/19 00:46:52;;;;;;;7.20;2.40;;;3.20;99.90;;;;;;5073958;28;20029;-79
2023/01/19 00:49:18;;;;;;;5.18;2.25;;;3.20;99.90;;;;;;5074023;28;20434;-79
2023/01/19 00:51:43;;;;;;;5.80;1.90;;;3.10;99.90;;;;;;5073487;28;20482;-79
2023/01/19 00:54:09;;;;;;;5.78;2.13;;;3.10;99.90;;;;;;5073892;28;20016;-78
2023/01/19 00:56:36;;;;;;;5.78;1.90;;;3.10;99.90;;;;;;5073998;28;20028;-79
2023/01/19 00:59:01;;;;;;;5.55;2.47;;;3.10;99.90;;;;;;5073040;28;20054;-79
2023/01/19 01:01:27;;;;;;;7.95;2.67;;;3.10;99.90;;;;;;5073882;28;20090;-80
2023/01/19 01:03:54;;;;;;;4.13;2.53;;;3.10;99.90;;;;;;5074214;28;20095;-80
2023/01/19 01:06:20;;;;;;;7.47;2.15;;;3.10;99.90;;;;;;5074177;28;20021;-80
2023/01/19 01:08:46;;;;;;;6.97;2.13;;;3.00;99.90;;;;;;5080850;28;20084;-81
2023/01/19 01:11:11;;;;;;;6.13;2.03;;;3.00;99.90;;;;;;5081179;28;20040;-81
2023/01/19 01:13:37;;;;;;;7.22;2.22;;;3.10;99.90;;;;;;5074501;28;20052;-80
2023/01/19 01:16:03;;;;;;;6.05;2.80;;;3.00;99.90;;;;;;5074443;28;20378;-80
2023/01/19 01:18:29;;;;;;;4.07;2.05;;;3.00;99.90;;;;;;5075142;28;20052;-80
2023/01/19 01:21:05;;;;;;;5.45;2.15;;;3.00;99.90;;;;;;5071107;28;20052;-79
2023/01/19 01:23:31;;;;;;;6.00;2.13;;;3.00;99.90;;;;;;5073501;28;20485;-81
2023/01/19 01:25:57;;;;;;;8.07;2.78;;;3.00;99.90;;;;;;5073265;28;20024;-81
2023/01/19 01:28:23;;;;;;;4.18;1.85;;;3.00;99.90;;;;;;5073587;28;20028;-79
2023/01/19 01:30:53;;;;;;;8.18;2.45;;;3.00;99.90;;;;;;5073443;28;20016;-80
2023/01/19 01:33:18;;;;;;;4.50;2.08;;;3.10;99.90;;;;;;5073088;28;20025;-80
2023/01/19 01:35:44;;;;;;;2.58;2.00;;;3.10;99.90;;;;;;5072898;28;20020;-80
2023/01/19 01:38:10;;;;;;;5.32;2.20;;;3.10;99.90;;;;;;5071715;28;20469;-80
2023/01/19 01:40:39;;;;;;;4.90;2.17;;;3.10;99.90;;;;;;5073231;28;20057;-79
2023/01/19 01:43:13;;;;;;;4.75;2.28;;;3.00;99.90;;;;;;5071659;28;20028;-80
2023/01/19 01:45:40;;;;;;;4.28;1.85;;;2.90;99.90;;;;;;5072034;28;20064;-79
2023/01/19 01:48:26;;;;;;;5.72;1.90;;;2.90;99.90;;;;;;5071494;28;20493;-79
2023/01/19 01:53:39;;;;;;;6.50;2.20;;;2.90;99.90;;;;;;5072099;28;20072;-79
2023/01/19 01:56:11;;;;;;;4.70;2.40;;;2.90;99.90;;;;;;5072965;28;20033;-77
2023/01/19 01:58:38;;;;;;;4.32;2.08;;;2.80;99.90;;;;;;5072720;28;20027;-79
2023/01/19 02:03:50;;;;;;;4.70;2.00;;;2.70;99.90;;;;;;5073807;28;20074;-80
2023/01/19 02:06:16;;;;;;;8.95;2.53;;;2.60;99.90;;;;;;5074406;28;20024;-79
2023/01/19 02:14:30;;;;;;;5.15;2.80;;;2.40;99.90;;;;;;5090352;28;20111;-80
2023/01/19 02:16:55;;;;;;;7.00;2.22;;;2.40;99.90;;;;;;5076680;28;20036;-79
2023/01/19 02:19:26;;;;;;;3.50;1.83;;;2.40;99.90;;;;;;5073614;28;20161;-79
2023/01/19 02:22:08;;;;;;;6.53;2.20;;;2.40;99.90;;;;;;5073780;28;20020;-80
2023/01/19 02:24:35;;;;;;;6.88;1.85;;;2.30;99.90;;;;;;5076917;28;20020;-79
2023/01/19 02:27:01;;;;;;;4.55;2.35;;;2.30;99.90;;;;;;5072039;28;20140;-80
2023/01/19 02:29:27;;;;;;;4.85;2.15;;;2.40;99.90;;;;;;5072490;28;20021;-81
2023/01/19 02:31:56;;;;;;;5.15;1.58;;;2.30;99.90;;;;;;5071788;28;20511;-80
2023/01/19 02:34:22;;;;;;;6.25;2.00;;;2.30;99.90;;;;;;5071757;28;20413;-79
2023/01/19 02:37:07;;;;;;;3.70;1.92;;;2.30;99.90;;;;;;5071669;28;20699;-80
2023/01/19 02:39:54;;;;;;;7.25;2.17;;;2.20;99.90;;;;;;5071668;28;20024;-78
2023/01/19 02:42:44;;;;;;;11.90;2.45;;;2.00;99.90;;;;;;5071538;28;20030;-80
2023/01/19 02:45:14;;;;;;;3.40;1.92;;;2.00;99.90;;;;;;5071796;28;20012;-81
2023/01/19 02:47:44;;;;;;;15.00;2.83;;;1.90;99.90;;;;;;5071700;28;20404;-80
2023/01/19 02:50:28;;;;;;;3.22;1.70;;;1.90;99.90;;;;;;5071690;28;20020;-80
2023/01/19 02:53:03;;;;;;;4.43;2.58;;;2.00;99.90;;;;;;5072297;28;20044;-80
2023/01/19 02:55:30;;;;;;;3.70;1.80;;;1.90;99.90;;;;;;5072543;28;20032;-80
2023/01/19 02:58:25;;;;;;;4.88;1.70;;;1.90;99.90;;;;;;5074021;28;20024;-81
2023/01/19 03:01:40;;;;;;;10.05;2.30;;;1.80;99.90;;;;;;5081453;28;20048;-81
2023/01/19 03:04:27;;;;;;;3.97;1.80;;;1.80;99.90;;;;;;5082450;28;20031;-80
2023/01/19 03:07:07;;;;;;;5.45;2.40;;;1.80;99.90;;;;;;5074532;28;20025;-80
2023/01/19 03:09:32;;;;;;;4.57;1.90;;;1.90;99.90;;;;;;5072644;28;20025;-80
2023/01/19 03:12:23;;;;;;;9.75;2.10;;;2.00;99.90;;;;;;5071547;28;20097;-80
2023/01/19 03:14:52;;;;;;;5.80;2.20;;;2.00;99.90;;;;;;5070805;28;20041;-80
2023/01/19 03:17:18;;;;;;;11.13;2.00;;;2.00;99.90;;;;;;5071101;28;20024;-80
2023/01/19 03:19:48;;;;;;;6.55;2.10;;;2.00;99.90;;;;;;5052798;28;20443;-79
2023/01/19 03:22:25;;;;;;;4.72;1.95;;;2.00;99.90;;;;;;5070878;28;20054;-79
2023/01/19 03:24:53;;;;;;;5.50;1.85;;;2.10;99.90;;;;;;5069848;28;20084;-79
2023/01/19 03:27:25;;;;;;;2.70;1.90;;;2.00;99.90;;;;;;5071458;28;20031;-81
2023/01/19 03:29:58;;;;;;;7.72;2.53;;;2.00;99.90;;;;;;5071101;28;20023;-80
2023/01/19 03:32:30;;;;;;;4.18;2.00;;;2.00;1.00;;;;;;5070624;28;20032;-80
2023/01/19 03:34:59;;;;;;;9.52;2.60;;;1.90;1.00;;;;;;5071105;28;20056;-79
2023/01/19 03:37:28;;;;;;;6.03;1.92;;;1.90;1.00;;;;;;5071085;28;20125;-79
2023/01/19 03:39:54;;;;;;;3.35;2.08;;;1.90;1.00;;;;;;5070818;28;20052;-78
2023/01/19 03:42:21;;;;;;;6.50;2.28;;;1.90;1.00;;;;;;5070757;28;20044;-79
2023/01/19 03:44:50;;;;;;;6.47;2.30;;;2.00;1.00;;;;;;5074139;28;20024;-78
2023/01/19 03:47:17;;;;;;;5.57;2.05;;;1.90;1.00;;;;;;5074977;28;20027;-79
2023/01/19 03:49:45;;;;;;;5.57;2.55;;;2.00;1.00;;;;;;5074776;28;20066;-80
2023/01/19 03:52:11;;;;;;;5.93;2.53;;;2.00;1.00;;;;;;5074746;28;20056;-80
2023/01/19 03:54:37;;;;;;;6.15;2.17;;;2.10;1.00;;;;;;5074806;28;20024;-80
2023/01/19 03:57:03;;;;;;;7.65;2.78;;;2.20;1.00;;;;;;5074785;28;20474;-79
2023/01/19 03:59:29;;;;;;;7.45;2.58;;;2.10;1.00;;;;;;5074776;28;20020;-80
2023/01/19 04:01:54;;;;;;;3.42;1.95;;;2.20;1.00;;;;;;5075132;28;20025;-81
2023/01/19 04:04:20;;;;;;;4.85;2.17;;;2.20;1.00;;;;;;5075512;28;20081;-81
2023/01/19 04:06:46;;;;;;;8.80;2.35;;;2.10;1.00;;;;;;5075197;28;20477;-81
2023/01/19 04:09:11;;;;;;;8.77;2.97;;;2.10;1.00;;;;;;5073295;28;20025;-81
2023/01/19 04:11:37;;;;;;;5.53;2.30;;;2.00;99.90;;;;;;5074463;28;20487;-80
2023/01/19 04:14:03;;;;;;;5.35;2.30;;;1.90;99.90;;;;;;5074607;28;20099;-80
2023/01/19 04:16:28;;;;;;;11.57;3.28;;;1.80;99.90;;;;;;5062098;28;20048;-79
2023/01/19 04:18:55;;;;;;;8.30;2.60;;;1.90;1.00;;;;;;5054167;28;20179;-79
2023/01/19 04:21:20;;;;;;;4.50;2.20;;;1.80;1.00;;;;;;5052922;28;20033;-79
2023/01/19 04:23:48;;;;;;;3.90;2.45;;;1.90;1.00;;;;;;5054634;28;20450;-78
2023/01/19 04:26:14;;;;;;;6.13;2.47;;;1.90;1.00;;;;;;5054046;28;20477;-81
2023/01/19 04:28:40;;;;;;;4.47;2.45;;;1.80;1.00;;;;;;5053892;28;20017;-79
2023/01/19 04:31:07;;;;;;;9.95;2.95;;;1.90;1.00;;;;;;5054139;28;20029;-80
2023/01/19 04:33:33;;;;;;;6.55;2.22;;;1.80;1.00;;;;;;5053908;28;20420;-80
2023/01/19 04:35:59;;;;;;;7.45;2.40;;;1.80;1.00;;;;;;5054029;28;20407;-79
2023/01/19 04:38:25;;;;;;;6.45;2.58;;;1.80;1.00;;;;;;5053952;28;20032;-79
2023/01/19 04:40:51;;;;;;;14.05;2.80;;;1.80;1.00;;;;;;5054073;28;20028;-80
2023/01/19 04:43:18;;;;;;;5.65;2.80;;;1.80;1.00;;;;;;5053739;28;20017;-79
2023/01/19 04:45:45;;;;;;;3.20;2.03;;;1.80;1.00;;;;;;5052567;28;20048;-80
2023/01/19 04:48:11;;;;;;;11.57;2.97;;;1.80;1.00;;;;;;5053892;28;20021;-81
2023/01/19 04:50:37;;;;;;;5.10;2.30;;;1.80;1.00;;;;;;5054250;28;20021;-79
2023/01/19 04:53:03;;;;;;;6.28;2.00;;;1.80;1.00;;;;;;5054525;28;20059;-79
2023/01/19 04:55:28;;;;;;;11.00;2.78;;;1.90;1.00;;;;;;5055632;28;20560;-80
2023/01/19 04:57:54;;;;;;;2.80;2.05;;;2.00;1.00;;;;;;5053700;28;20563;-80
2023/01/19 05:00:22;;;;;;;8.35;2.75;;;2.10;1.00;;;;;;5053846;28;20021;-80
2023/01/19 05:02:48;;;;;;;5.63;2.60;;;2.00;1.00;;;;;;5053641;28;20064;-80
2023/01/19 05:05:13;;;;;;;9.40;2.60;;;2.00;1.00;;;;;;5053666;28;20067;-80
2023/01/19 05:07:39;;;;;;;5.75;3.00;;;2.00;1.00;;;;;;5054697;28;20025;-81
2023/01/19 05:10:06;;;;;;;11.65;3.13;;;2.00;1.00;;;;;;5055576;28;20151;-80
2023/01/19 05:12:32;;;;;;;7.43;2.63;;;2.10;1.00;;;;;;5055997;28;20052;-80
2023/01/19 05:14:58;;;;;;;4.68;2.70;;;2.10;1.00;;;;;;5055738;28;20041;-80
2023/01/19 05:17:24;;;;;;;7.15;2.88;;;2.10;1.00;;;;;;5055542;28;20029;-81
2023/01/19 05:19:50;;;;;;;10.02;2.70;;;2.10;1.00;;;;;;5059179;28;20086;-79
2023/01/19 05:22:16;;;;;;;4.38;2.50;;;2.20;1.00;;;;;;5057679;28;20104;-80
2023/01/19 05:24:41;;;;;;;4.68;2.67;;;2.20;1.00;;;;;;5058898;28;20025;-79
2023/01/19 05:27:07;;;;;;;13.85;3.53;;;2.30;1.00;;;;;;5064362;28;20027;-78
2023/01/19 05:29:33;;;;;;;7.85;2.80;;;2.30;1.00;;;;;;5065761;28;20155;-79
2023/01/19 05:31:59;;;;;;;4.15;2.53;;;2.30;1.00;;;;;;5055726;28;20069;-80
2023/01/19 05:34:25;;;;;;;7.10;2.90;;;2.30;1.00;;;;;;5053079;28;20040;-79
2023/01/19 05:36:51;;;;;;;6.78;3.20;;;2.30;1.00;;;;;;5051584;28;20055;-78
2023/01/19 05:39:17;;;;;;;8.23;2.72;;;2.30;1.00;;;;;;5052898;28;20106;-80
2023/01/19 05:41:44;;;;;;;5.10;2.40;;;2.20;1.00;;;;;;5053153;28;20052;-80
2023/01/19 05:44:13;;;;;;;3.80;2.70;;;2.20;1.00;;;;;;5053160;28;20531;-79
2023/01/19 05:46:39;;;;;;;5.32;3.05;;;2.20;1.00;;;;;;5052898;28;20029;-80
2023/01/19 05:49:06;;;;;;;7.05;2.58;;;2.20;1.00;;;;;;5052874;28;20116;-80
2023/01/19 05:51:36;;;;;;;8.70;2.58;;;2.20;1.00;;;;;;5051351;28;20029;-80
2023/01/19 05:54:06;;;;;;;4.63;2.40;;;2.30;1.00;;;;;;5052778;28;20387;-80
2023/01/19 05:56:33;;;;;;;4.78;2.75;;;2.30;1.00;;;;;;5053051;28;20020;-80
2023/01/19 05:58:59;;;;;;;11.77;2.90;;;2.20;1.00;;;;;;5052820;28;20025;-80
2023/01/19 06:01:25;;;;;;;11.35;2.88;;;2.20;1.00;;;;;;5053035;28;20541;-80
2023/01/19 06:03:51;;;;;;;7.80;3.15;;;2.20;1.00;;;;;;5054353;28;20029;-82
2023/01/19 06:06:17;;;;;;;5.00;2.70;;;2.10;1.00;;;;;;5056616;28;20046;-82
2023/01/19 06:08:43;;;;;;;8.80;3.03;;;2.00;1.00;;;;;;5068927;28;20025;-81
2023/01/19 06:11:09;;;;;;;11.23;2.80;;;1.90;1.00;;;;;;5073284;28;20035;-81
2023/01/19 06:13:35;;;;;;;12.48;2.72;;;1.90;1.00;;;;;;5070107;28;20029;-80
2023/01/19 06:16:02;;;;;;;12.90;4.50;;;2.10;1.00;;;;;;5053904;28;20398;-79
2023/01/19 06:18:28;;;;;;;5.70;2.95;;;2.10;1.00;;;;;;5059915;28;20016;-77
2023/01/19 06:20:57;;;;;;;7.80;3.00;;;2.20;1.00;;;;;;5071995;28;20024;-75
2023/01/19 06:23:29;;;;;;;9.95;3.80;;;2.30;1.00;;;;;;5054276;28;20031;-77
2023/01/19 06:25:55;;;;;;;10.98;3.13;;;2.40;1.00;;;;;;5052205;28;20178;-80
2023/01/19 06:28:21;;;;;;;6.40;2.40;;;2.40;1.00;;;;;;5051318;28;20027;-80
2023/01/19 06:30:49;;;;;;;5.57;3.05;;;2.50;1.00;;;;;;5052936;28;20035;-78
2023/01/19 06:33:15;;;;;;;4.43;2.75;;;2.60;1.00;;;;;;5052415;28;20086;-77
2023/01/19 06:35:46;;;;;;;6.47;2.67;;;2.60;1.00;;;;;;5051617;28;20013;-77
2023/01/19 06:38:16;;;;;;;7.65;2.88;;;2.60;1.00;;;;;;5051819;28;20033;-77
2023/01/19 06:40:43;;;;;;;15.43;3.17;;;2.70;1.00;;;;;;5053179;28;20521;-77
2023/01/19 06:43:08;;;;;;;5.50;2.55;;;2.80;99.90;;;;;;5054920;28;20035;-77
2023/01/19 06:45:34;;;;;;;5.28;2.78;;;2.70;99.90;;;;;;5054357;28;20049;-79
2023/01/19 06:48:00;;;;;;;10.27;2.80;;;2.60;99.90;;;;;;5052101;28;20029;-79
2023/01/19 06:50:26;;;;;;;15.02;3.38;;;2.50;99.90;;;;;;5051789;28;20028;-79
2023/01/19 06:52:52;;;;;;;5.38;2.78;;;2.40;99.90;;;;;;5051858;28;20037;-79
2023/01/19 06:55:18;;;;;;;9.10;3.65;;;2.30;99.90;;;;;;5051347;28;20070;-78
2023/01/19 06:57:44;;;;;;;7.63;3.25;;;2.20;99.90;;;;;;5050348;28;20033;-79
2023/01/19 07:00:11;;;;;;;7.00;2.83;;;2.10;99.90;;;;;;5054456;28;20031;-79
2023/01/19 07:02:43;;;;;;;10.13;2.97;;;2.00;99.90;;;;;;5070964;28;20031;-79
2023/01/19 07:05:13;;;;;;;6.85;3.20;;;2.00;99.90;;;;;;5065308;28;20021;-78
2023/01/19 07:07:39;;;;;;;5.88;2.88;;;2.00;99.90;;;;;;5073192;28;20123;-80
2023/01/19 07:10:10;;;;;;;6.05;3.50;;;2.10;1.00;;;;;;5073002;28;20033;-79
2023/01/19 07:12:37;;;;;;;5.07;3.35;;;2.10;1.00;;;;;;5071853;28;20094;-78
2023/01/19 07:15:03;;;;;;;8.80;3.67;;;2.00;1.00;;;;;;5070203;28;20424;-79
2023/01/19 07:17:29;;;;;;;7.40;2.83;;;1.90;1.00;;;;;;5068110;28;20025;-79
2023/01/19 07:19:55;;;;;;;9.60;2.88;;;1.70;1.00;;;;;;5071141;28;20509;-79
2023/01/19 07:22:20;;;;;;;7.97;3.17;;;1.70;1.00;;;;;;5070354;28;20469;-78
2023/01/19 07:24:46;;;;;;;7.13;3.22;;;1.60;1.00;;;;;;5071317;28;20358;-77
2023/01/19 07:27:12;;;;;;;8.07;3.50;;;1.50;1.00;;;;;;5067934;28;20086;-79
2023/01/19 07:29:38;;;;;;;9.13;3.45;;;1.50;1.00;;;;;;5052152;28;20539;-79
2023/01/19 07:32:05;;;;;;;7.88;3.28;;;1.50;1.00;;;;;;5052793;28;20433;-80
2023/01/19 07:34:31;;;;;;;9.52;2.90;;;1.40;1.00;;;;;;5049889;28;20021;-78
2023/01/19 07:36:56;;;;;;;6.25;3.17;;;1.20;1.00;;;;;;5050981;28;20032;-79
2023/01/19 07:39:22;;;;;;;7.18;3.05;;;1.10;1.00;;;;;;5050999;28;20328;-78
2023/01/19 07:41:48;;;;;;;4.45;2.75;;;1.00;1.00;;;;;;5064557;28;20036;-77
2023/01/19 07:44:14;;;;;;;10.10;3.10;;;1.00;1.00;;;;;;5050533;28;20025;-77
2023/01/19 07:46:40;;;;;;;5.00;2.95;;;0.90;1.00;;;;;;5052231;28;20029;-78
2023/01/19 07:49:08;;;;;;;9.65;2.80;;;0.90;1.00;;;;;;5054630;28;20028;-78
2023/01/19 07:51:35;;;;;;;5.20;3.22;;;0.90;1.00;;;;;;5058132;28;20036;-79
2023/01/19 07:54:00;;;;;;;7.25;3.00;;;0.90;1.00;;;;;;5064507;28;20202;-76
2023/01/19 07:56:28;;;;;;;8.98;3.05;;;0.90;19.80;;;;;;5069512;28;20021;-77
2023/01/19 07:58:55;;;;;;;4.45;2.83;;;0.90;33.80;;;;;;5057191;28;20029;-77
2023/01/19 08:01:21;;;;;;;7.80;3.35;;;0.90;52.70;;;;;;5060888;28;20044;-77
2023/01/19 08:03:47;;;;;;;8.77;3.42;;;0.90;77.10;;;;;;5051670;28;20029;-77
2023/01/19 08:06:20;;;;;;;5.85;3.38;;;0.80;92.00;;;;;;5063743;28;20037;-77
2023/01/19 08:08:45;;;;;;;10.88;3.15;;;0.80;99.90;;;;;;5068957;28;20036;-76
2023/01/19 08:11:12;;;;;;;8.05;3.65;;;0.80;99.90;;;;;;5059575;28;20032;-77
2023/01/19 08:13:37;;;;;;;8.15;3.75;;;0.80;99.90;;;;;;5050891;28;20041;-77
2023/01/19 08:16:03;;;;;;;4.05;3.13;;;0.80;99.90;;;;;;5051713;28;20107;-75
2023/01/19 08:18:29;;;;;;;6.45;3.30;;;0.90;99.90;;;;;;5051139;28;20025;-76
2023/01/19 08:20:57;;;;;;;11.65;3.30;;;0.90;99.90;;;;;;5051286;28;20450;-77
2023/01/19 08:23:23;;;;;;;7.85;3.15;;;1.00;99.90;;;;;;5053217;28;20462;-76
2023/01/19 08:25:50;;;;;;;5.90;3.20;;;1.10;99.90;;;;;;5056566;28;20036;-75
2023/01/19 08:28:17;;;;;;;5.50;3.15;;;1.20;99.90;;;;;;5078355;28;20412;-77
2023/01/19 08:30:43;;;;;;;8.90;3.17;;;1.40;99.90;;;;;;5084156;28;20024;-77
2023/01/19 08:33:10;;;;;;;9.00;4.07;;;1.40;99.90;;;;;;5076910;28;20033;-77
2023/01/19 08:35:38;;;;;;;8.35;3.65;;;1.60;1.00;;;;;;5075895;28;20021;-76
2023/01/19 08:38:05;;;;;;;12.30;3.72;;;1.80;1.00;;;;;;5074709;28;20569;-76
2023/01/19 08:40:33;;;;;;;7.72;3.03;;;1.90;11.00;;;;;;5074455;28;20073;-76
2023/01/19 08:43:03;;;;;;;11.23;3.03;;;2.00;45.90;;;;;;5073793;28;20381;-75
2023/01/19 08:45:29;;;;;;;7.13;3.10;;;2.10;64.80;;;;;;5073718;28;20017;-76
2023/01/19 08:47:57;;;;;;;4.50;2.95;;;2.20;91.20;;;;;;5073895;28;20035;-76
2023/01/19 08:50:24;;;;;;;11.98;3.60;;;2.20;99.70;;;;;;5073740;28;20016;-75
2023/01/19 08:52:50;;;;;;;5.82;2.80;;;2.30;99.90;;;;;;5072909;28;20090;-74
2023/01/19 08:55:16;;;;;;;6.30;3.45;;;2.30;99.90;;;;;;5073882;28;20028;-76
2023/01/19 08:57:42;;;;;;;4.43;2.50;;;2.40;99.90;;;;;;5073648;28;20435;-76
2023/01/19 09:00:09;;;;;;;7.72;2.67;;;2.40;99.90;;;;;;5073782;28;20024;-76
2023/01/19 09:02:36;;;;;;;4.93;2.53;;;2.40;99.90;;;;;;5073765;28;20031;-77
2023/01/19 09:05:03;;;;;;;9.95;3.40;;;2.50;99.90;;;;;;5073504;28;20021;-77
2023/01/19 09:07:29;;;;;;;6.20;2.88;;;2.60;99.90;;;;;;5073490;28;20503;-77
2023/01/19 09:09:55;;;;;;;7.28;3.22;;;2.70;99.90;;;;;;5073398;28;20029;-76
2023/01/19 09:12:21;;;;;;;8.95;3.55;;;2.90;99.90;;;;;;5073818;28;20043;-76
2023/01/19 09:14:47;;;;;;;9.38;3.10;;;3.00;96.30;;;;;;5073236;28;20149;-76
2023/01/19 09:17:13;;;;;;;7.30;3.78;;;3.10;53.00;;;;;;5073327;28;20086;-76
2023/01/19 09:19:40;;;;;;;5.53;3.28;;;3.20;1.00;;;;;;5072227;28;20107;-76
2023/01/19 09:22:05;;;;;;;11.52;3.50;;;3.20;99.90;;;;;;5073359;28;20103;-77
2023/01/19 09:24:33;;;;;;;9.43;4.03;;;3.30;99.90;;;;;;5073532;28;20048;-75
2023/01/19 09:26:59;;;;;;;10.30;3.40;;;3.40;99.90;;;;;;5073241;28;20484;-76
2023/01/19 09:29:25;;;;;;;6.72;3.25;;;3.40;91.70;;;;;;5073429;28;20033;-77
2023/01/19 09:31:51;;;;;;;8.70;3.20;;;3.50;1.00;;;;;;5073085;28;20366;-76
2023/01/19 09:34:16;;;;;;;6.05;3.70;;;3.60;1.00;;;;;;5071928;28;20029;-76
2023/01/19 09:36:42;;;;;;;5.38;2.92;;;3.70;99.90;;;;;;5073048;28;20047;-75
2023/01/19 09:39:09;;;;;;;10.40;4.38;;;3.80;99.90;;;;;;5073106;28;20480;-76
2023/01/19 09:41:37;;;;;;;13.57;4.72;;;3.70;99.90;;;;;;5072407;28;20113;-77
2023/01/19 09:44:04;;;;;;;7.72;4.35;;;3.60;99.90;;;;;;5072969;28;20100;-76
2023/01/19 09:46:38;;;;;;;11.73;4.25;;;3.60;99.90;;;;;;5072958;28;20135;-76
2023/01/19 09:49:10;;;;;;;8.00;3.83;;;3.60;99.90;;;;;;5072958;28;20504;-75
2023/01/19 09:51:40;;;;;;;7.68;3.58;;;3.70;99.90;;;;;;5072732;28;20035;-75
2023/01/19 09:54:17;;;;;;;7.05;3.28;;;3.80;99.90;;;;;;5073136;28;20032;-77
2023/01/19 09:56:45;;;;;;;9.45;3.42;;;3.90;99.90;;;;;;5072596;28;20030;-76
2023/01/19 09:59:20;;;;;;;8.75;3.15;;;4.00;99.90;;;;;;5073224;28;20024;-76
2023/01/19 10:01:55;;;;;;;6.25;2.85;;;4.10;99.90;;;;;;5076741;28;20112;-77
2023/01/19 10:04:40;;;;;;;5.20;2.60;;;4.20;99.90;;;;;;5078166;28;20095;-78
2023/01/19 10:07:37;;;;;;;6.75;2.50;;;4.20;99.90;;;;;;5072111;28;20054;-78
2023/01/19 10:10:09;;;;;;;4.93;2.10;;;4.30;99.90;;;;;;5072532;28;20477;-78
2023/01/19 10:12:44;;;;;;;6.90;2.33;;;4.30;99.90;;;;;;5072784;28;20072;-77
2023/01/19 10:15:31;;;;;;;2.55;1.88;;;4.40;99.90;;;;;;5072063;28;20044;-77
2023/01/19 10:18:16;;;;;;;3.47;1.85;;;4.30;99.90;;;;;;5072212;28;20416;-77
2023/01/19 10:20:49;;;;;;;4.50;2.60;;;4.30;99.90;;;;;;5072397;28;20028;-77
2023/01/19 10:23:37;;;;;;;5.85;2.60;;;4.30;99.90;;;;;;5072675;28;20089;-77
2023/01/19 10:26:37;;;;;;;8.15;2.35;;;4.30;99.90;;;;;;5072716;28;20378;-77
2023/01/19 10:29:07;;;;;;;6.72;3.83;;;4.30;99.90;;;;;;5072000;28;20033;-77
2023/01/19 10:31:38;;;;;;;11.77;3.35;;;4.20;99.90;;;;;;5072027;28;20032;-77
2023/01/19 10:34:04;;;;;;;9.50;2.97;;;4.10;99.90;;;;;;5072017;28;20017;-77
2023/01/19 10:36:36;;;;;;;7.63;2.40;;;4.10;99.90;;;;;;5071919;28;20261;-77
2023/01/19 10:39:05;;;;;;;6.60;2.40;;;4.20;99.90;;;;;;5070634;28;20029;-77
2023/01/19 10:41:43;;;;;;;3.47;2.30;;;4.20;99.90;;;;;;5072014;28;20546;-77
2023/01/19 10:44:10;;;;;;;5.47;2.50;;;4.20;99.90;;;;;;5072048;28;20381;-78
2023/01/19 10:46:44;;;;;;;8.50;2.78;;;4.10;99.90;;;;;;5072032;28;20050;-78
2023/01/19 10:49:27;;;;;;;5.60;2.83;;;4.10;99.90;;;;;;5072911;28;20016;-78
2023/01/19 10:51:55;;;;;;;3.85;2.45;;;4.10;99.90;;;;;;5072325;28;20127;-77
2023/01/19 10:54:21;;;;;;;7.15;2.80;;;4.10;99.90;;;;;;5072385;28;20025;-77
2023/01/19 10:56:53;;;;;;;8.55;2.67;;;4.10;99.90;;;;;;5071764;28;20021;-77
2023/01/19 10:59:35;;;;;;;4.05;2.20;;;4.20;99.90;;;;;;5070534;28;20424;-76
2023/01/19 11:02:16;;;;;;;4.80;1.92;;;4.20;99.90;;;;;;5072007;28;20036;-78
2023/01/19 11:04:43;;;;;;;3.17;1.42;;;4.40;99.90;;;;;;5072920;28;20052;-77
2023/01/19 11:07:28;;;;;;;9.45;1.42;;;4.80;99.90;;;;;;5075347;28;20028;-77
2023/01/19 11:10:12;;;;;;;4.72;1.83;;;5.00;99.90;;;;;;5080362;28;20025;-77
2023/01/19 11:13:06;;;;;;;2.72;1.50;;;5.30;99.90;;;;;;5077372;28;20446;-77
2023/01/19 11:15:31;;;;;;;9.05;3.00;;;5.40;99.90;;;;;;5060806;28;20048;-78
2023/01/19 11:17:57;;;;;;;9.52;4.05;;;5.40;99.90;;;;;;5071452;28;20017;-77
2023/01/19 11:20:29;;;;;;;10.75;4.50;;;5.20;99.90;;;;;;5071294;28;20024;-77
2023/01/19 11:23:15;;;;;;;14.18;4.53;;;5.10;99.90;;;;;;5071399;28;20055;-77
2023/01/19 11:25:46;;;;;;;19.08;4.55;;;5.10;99.90;;;;;;5071332;28;20104;-77
2023/01/19 11:28:23;;;;;;;7.80;3.90;;;5.10;99.90;;;;;;5071182;28;20021;-77
2023/01/19 11:30:59;;;;;;;8.07;3.75;;;5.20;99.90;;;;;;5070969;28;20020;-77
2023/01/19 11:33:33;;;;;;;7.55;3.20;;;5.30;99.90;;;;;;5071174;28;20052;-77
2023/01/19 11:36:12;;;;;;;11.80;2.78;;;5.60;99.90;;;;;;5071303;28;20565;-77
2023/01/19 11:38:44;;;;;;;9.43;2.38;;;5.70;99.90;;;;;;5071370;28;20042;-77
2023/01/19 11:41:43;;;;;;;3.55;2.10;;;5.90;99.90;;;;;;5070307;28;20047;-77
2023/01/19 11:44:20;;;;;;;8.90;2.28;;;6.10;99.90;;;;;;5028514;28;20072;-79
2023/01/19 11:46:51;;;;;;;7.40;3.08;;;6.20;99.90;;;;;;5092542;28;20017;-78
2023/01/19 11:49:43;;;;;;;9.80;3.90;;;6.20;99.90;;;;;;5094016;28;20028;-77
2023/01/19 11:52:43;;;;;;;9.02;4.38;;;6.30;99.90;;;;;;5059612;28;20068;-77
2023/01/19 11:55:36;;;;;;;12.35;6.47;;;6.40;99.90;;;;;;5071351;28;20125;-77
2023/01/19 11:58:03;;;;;;;12.98;5.85;;;6.40;99.90;;;;;;5056686;28;20111;-78
2023/01/19 12:00:37;;;;;;;15.70;5.90;;;6.50;99.90;;;;;;5070994;28;20020;-77
2023/01/19 12:03:25;;;;;;;11.02;4.80;;;6.40;99.90;;;;;;5070986;28;20473;-78
2023/01/19 12:05:55;;;;;;;21.67;9.15;;;6.40;99.90;;;;;;5075163;28;20123;-77
2023/01/19 12:08:26;;;;;;;31.48;12.63;;;6.50;99.90;;;;;;5075522;28;20029;-77
2023/01/19 12:10:54;;;;;;;16.17;5.93;;;6.70;99.90;;;;;;5075920;28;20040;-77
2023/01/19 12:13:21;;;;;;;6.30;2.67;;;7.00;99.90;;;;;;5075138;28;20432;-76
2023/01/19 12:15:51;;;;;;;7.50;3.00;;;7.30;99.90;;;;;;5074842;28;20470;-76
2023/01/19 12:18:28;;;;;;;6.68;2.70;;;7.70;99.90;;;;;;5075039;28;20456;-76
2023/01/19 12:20:55;;;;;;;10.80;2.10;;;7.90;99.90;;;;;;5074830;28;20028;-76
2023/01/19 12:23:43;;;;;;;4.60;1.48;;;8.10;99.90;;;;;;5074676;28;20024;-76
2023/01/19 12:26:25;;;;;;;10.32;1.98;;;8.50;99.90;;;;;;5075492;28;20404;-78
2023/01/19 12:28:53;;;;;;;6.03;1.90;;;8.70;99.90;;;;;;5074491;28;20028;-77
2023/01/19 12:31:21;;;;;;;4.80;1.60;;;9.00;99.90;;;;;;5074129;28;20504;-78
2023/01/19 12:33:48;;;;;;;5.70;1.50;;;9.30;99.90;;;;;;5074285;28;20024;-77
2023/01/19 12:36:28;;;;;;;7.78;2.03;;;10.10;99.90;;;;;;5074414;28;20029;-77
2023/01/19 12:39:09;;;;;;;7.03;1.50;;;10.40;99.90;;;;;;5074925;28;20023;-77
2023/01/19 12:41:36;;;;;;;2.83;1.00;;;11.00;99.90;;;;;;5074586;28;20032;-76
2023/01/19 12:44:11;;;;;;;2.60;1.63;;;11.90;99.90;;;;;;5074308;28;20029;-77
2023/01/19 12:46:50;;;;;;;6.85;1.80;;;12.90;99.90;;;;;;5074534;28;20451;-77
2023/01/19 12:49:26;;;;;;;10.45;3.30;;;13.80;99.90;;;;;;5074463;28;20077;-78
2023/01/19 12:52:34;;;;;;;10.48;3.90;;;14.10;99.90;;;;;;5074126;28;20056;-76
2023/01/19 12:55:13;;;;;;;6.25;3.10;;;14.70;99.90;;;;;;5073577;28;20082;-76
2023/01/19 12:57:54;;;;;;;3.55;1.52;;;13.90;99.90;;;;;;5073754;28;20130;-76
2023/01/19 13:00:22;;;;;;;4.28;1.45;;;14.60;99.90;;;;;;5073859;28;20458;-77
2023/01/19 13:03:00;;;;;;;5.53;1.60;;;15.00;99.90;;;;;;5073721;28;20485;-77
2023/01/19 13:05:31;;;;;;;6.40;1.70;;;15.30;99.90;;;;;;5074324;28;20310;-77
2023/01/19 13:08:09;;;;;;;9.15;1.70;;;15.30;99.90;;;;;;5073951;28;20016;-77
2023/01/19 13:11:01;;;;;;;3.40;1.45;;;15.20;99.90;;;;;;5073525;28;20473;-77
2023/01/19 13:13:49;;;;;;;7.70;1.60;;;15.10;99.90;;;;;;5073705;28;20039;-77
2023/01/19 13:16:17;;;;;;;4.45;1.88;;;15.00;99.90;;;;;;5030592;28;20045;-77
2023/01/19 13:18:52;;;;;;;5.40;1.70;;;15.00;99.90;;;;;;5073551;28;20027;-77
2023/01/19 13:21:31;;;;;;;4.03;1.55;;;15.00;99.90;;;;;;5073649;28;20020;-77
2023/01/19 13:24:04;;;;;;;8.60;2.10;;;15.40;99.90;;;;;;5073392;28;20036;-77
2023/01/19 13:26:32;;;;;;;4.80;1.27;;;15.50;99.90;;;;;;5073815;28;20060;-77